Time;durP1;ratioP1;P1;durP2;ratioP2;P2;SDS_P1;SDS_P2;PMS_P1;PMS_P2;Temp;Humidity;BMP_temperature;BMP_pressure;BME280_temperature;BME280_humidity;BME280_pressure;Samples;Min_cycle;Max_cycle;Signal;HPM_P1;HPM_P2
2022/08/24 00:01:34;;;;;;;25.80;13.95;;;19.20;99.90;;;;;;10176374;29;20262;-85
2022/08/24 00:06:36;;;;;;;21.85;13.85;;;19.10;99.90;;;;;;10182766;29;20223;-85
2022/08/24 00:11:39;;;;;;;20.35;12.77;;;19.10;99.90;;;;;;10172195;29;20709;-85
2022/08/24 00:16:42;;;;;;;16.80;13.25;;;19.10;99.90;;;;;;10167297;29;20246;-84
2022/08/24 00:21:44;;;;;;;19.45;14.00;;;19.10;99.90;;;;;;10199377;29;20259;-85
2022/08/24 00:26:47;;;;;;;18.77;12.57;;;19.10;99.90;;;;;;10172581;29;20684;-85
2022/08/24 00:31:50;;;;;;;18.20;13.45;;;19.00;99.90;;;;;;10155171;29;20250;-85
2022/08/24 00:36:53;;;;;;;16.83;13.38;;;19.00;99.90;;;;;;10177317;29;20266;-85
2022/08/24 00:41:56;;;;;;;22.33;13.88;;;19.00;99.90;;;;;;10155156;29;20316;-84
2022/08/24 00:47:11;;;;;;;23.85;12.90;;;19.00;99.90;;;;;;10155058;29;20255;-85
2022/08/24 00:52:32;;;;;;;24.88;15.32;;;19.00;99.90;;;;;;10157622;29;20234;-85
2022/08/24 00:57:40;;;;;;;29.52;16.52;;;19.00;99.90;;;;;;10181017;29;20255;-84
2022/08/24 01:02:47;;;;;;;30.27;17.88;;;18.90;99.90;;;;;;10153451;29;20318;-85
2022/08/24 01:07:50;;;;;;;30.75;18.05;;;18.90;99.90;;;;;;10153912;29;20259;-85
2022/08/24 01:13:00;;;;;;;28.83;19.42;;;18.90;99.90;;;;;;10175277;29;20294;-85
2022/08/24 01:23:42;;;;;;;42.75;21.27;;;19.00;99.90;;;;;;10209230;29;20293;-85
2022/08/24 01:28:49;;;;;;;42.00;20.08;;;18.90;99.90;;;;;;10184003;29;20223;-85
2022/08/24 01:33:54;;;;;;;36.38;20.40;;;18.90;99.90;;;;;;10190579;29;20298;-85
2022/08/24 01:39:01;;;;;;;39.83;19.10;;;18.80;99.90;;;;;;10189921;29;20274;-85
2022/08/24 01:44:04;;;;;;;35.05;19.55;;;18.90;99.90;;;;;;10174431;29;20238;-85
2022/08/24 01:49:07;;;;;;;35.20;19.08;;;18.80;99.90;;;;;;10182589;29;20306;-85
2022/08/24 01:54:11;;;;;;;29.23;16.98;;;18.90;99.90;;;;;;10191820;29;20247;-85
2022/08/24 01:59:14;;;;;;;35.10;17.38;;;18.80;99.90;;;;;;10187261;29;20737;-85
2022/08/24 02:04:18;;;;;;;27.50;16.75;;;18.90;99.90;;;;;;10177031;29;20290;-85
2022/08/24 02:09:22;;;;;;;32.78;15.48;;;18.90;99.90;;;;;;10166835;29;20267;-85
2022/08/24 02:14:29;;;;;;;24.88;15.25;;;18.90;99.90;;;;;;10151531;29;20250;-84
2022/08/24 02:19:37;;;;;;;29.42;15.80;;;18.70;99.90;;;;;;10189531;29;20691;-85
2022/08/24 02:24:41;;;;;;;22.70;13.93;;;18.70;99.90;;;;;;10191709;29;20266;-85
2022/08/24 02:29:45;;;;;;;24.70;14.48;;;18.70;99.90;;;;;;10182551;29;20308;-85
2022/08/24 02:34:48;;;;;;;27.85;15.20;;;18.70;99.90;;;;;;10168531;29;20624;-85
2022/08/24 02:39:56;;;;;;;29.40;15.85;;;18.70;99.90;;;;;;10159280;29;20353;-85
2022/08/24 02:45:00;;;;;;;26.10;15.48;;;18.70;99.90;;;;;;10159168;29;20251;-85
2022/08/24 02:50:06;;;;;;;24.58;15.07;;;18.70;99.90;;;;;;10168477;29;20290;-84
2022/08/24 02:55:13;;;;;;;23.88;16.08;;;18.70;99.90;;;;;;10158075;29;20254;-85
2022/08/24 03:00:21;;;;;;;25.58;15.73;;;18.60;99.90;;;;;;10175080;29;20773;-85
2022/08/24 03:05:28;;;;;;;27.35;15.55;;;18.50;99.90;;;;;;10158860;29;20310;-85
2022/08/24 03:10:31;;;;;;;22.02;14.13;;;18.40;99.90;;;;;;10174595;29;20251;-85
2022/08/24 03:15:34;;;;;;;24.52;15.38;;;18.40;99.90;;;;;;10178399;29;20247;-85
2022/08/24 03:20:38;;;;;;;22.85;14.70;;;18.40;99.90;;;;;;10157753;29;20270;-85
2022/08/24 03:25:41;;;;;;;24.00;14.98;;;18.40;99.90;;;;;;10161551;29;20246;-85
2022/08/24 03:30:44;;;;;;;25.08;14.20;;;18.40;99.90;;;;;;10161813;29;20306;-85
2022/08/24 03:35:52;;;;;;;19.65;13.68;;;18.40;99.90;;;;;;10176132;29;20334;-84
2022/08/24 03:40:56;;;;;;;19.83;14.27;;;18.30;99.90;;;;;;10163657;29;20787;-85
2022/08/24 03:46:01;;;;;;;21.70;14.45;;;18.30;99.90;;;;;;10195299;29;20270;-84
2022/08/24 03:51:12;;;;;;;25.58;15.48;;;18.30;99.90;;;;;;10191471;29;20752;-85
2022/08/24 03:56:15;;;;;;;22.27;14.32;;;18.30;99.90;;;;;;10172675;29;20616;-85
2022/08/24 04:01:18;;;;;;;20.40;15.77;;;18.30;99.90;;;;;;10162809;29;20258;-85
2022/08/24 04:06:23;;;;;;;22.90;16.05;;;18.20;99.90;;;;;;10178796;29;20207;-85
2022/08/24 04:11:28;;;;;;;24.30;16.27;;;18.20;99.90;;;;;;10194876;29;20206;-84
2022/08/24 04:16:32;;;;;;;23.52;16.90;;;18.10;99.90;;;;;;10180415;29;20772;-85
2022/08/24 04:21:57;;;;;;;23.98;15.68;;;18.00;99.90;;;;;;10172866;29;20262;-85
2022/08/24 04:27:01;;;;;;;22.67;16.77;;;18.00;99.90;;;;;;10192696;29;20206;-84
2022/08/24 04:32:03;;;;;;;27.60;18.80;;;18.00;99.90;;;;;;10173764;29;20657;-85
2022/08/24 04:37:07;;;;;;;22.30;17.02;;;17.90;99.90;;;;;;10189568;29;20235;-85
2022/08/24 04:42:13;;;;;;;26.88;16.33;;;18.00;99.90;;;;;;10174422;29;20262;-85
2022/08/24 04:47:17;;;;;;;31.33;16.85;;;18.00;99.90;;;;;;10178338;29;20230;-85
2022/08/24 04:52:20;;;;;;;20.30;14.23;;;18.10;99.90;;;;;;10166130;29;20207;-87
2022/08/24 04:57:22;;;;;;;23.95;16.92;;;18.40;99.90;;;;;;10191217;29;20668;-85
2022/08/24 05:02:26;;;;;;;22.45;16.73;;;18.70;99.90;;;;;;10192208;29;20266;-85
2022/08/24 05:07:31;;;;;;;23.20;17.15;;;18.40;99.90;;;;;;10192337;29;20700;-85
2022/08/24 05:12:33;;;;;;;32.50;18.45;;;18.30;99.90;;;;;;10166462;29;20635;-85
2022/08/24 05:17:40;;;;;;;25.23;18.05;;;18.40;99.90;;;;;;10174489;29;20242;-85
2022/08/24 05:22:45;;;;;;;25.83;18.20;;;18.30;99.90;;;;;;10181305;29;20263;-85
2022/08/24 05:27:47;;;;;;;33.75;18.52;;;18.30;99.90;;;;;;10165998;29;20231;-85
2022/08/24 05:32:50;;;;;;;30.45;18.70;;;18.30;99.90;;;;;;10189062;29;20250;-85
2022/08/24 05:37:53;;;;;;;27.80;16.83;;;18.40;99.90;;;;;;10188892;29;20274;-85
2022/08/24 05:42:59;;;;;;;28.98;17.75;;;18.60;99.90;;;;;;10167161;29;20267;-84
2022/08/24 05:48:02;;;;;;;23.83;17.13;;;18.60;99.90;;;;;;10170103;29;20215;-85
2022/08/24 05:53:23;;;;;;;25.58;17.08;;;18.80;99.90;;;;;;10208595;29;20211;-87
2022/08/24 05:58:26;;;;;;;26.92;18.85;;;18.80;99.90;;;;;;10189423;29;20210;-86
2022/08/24 06:03:37;;;;;;;26.45;19.38;;;18.90;99.90;;;;;;10162196;29;20219;-86
2022/08/24 06:08:45;;;;;;;26.70;18.42;;;18.80;99.90;;;;;;10163818;29;20629;-85
2022/08/24 06:13:50;;;;;;;30.17;19.92;;;18.90;99.90;;;;;;10151819;29;20251;-85
2022/08/24 06:19:05;;;;;;;32.15;20.27;;;18.90;99.90;;;;;;10151811;29;20267;-85
2022/08/24 06:24:08;;;;;;;30.58;20.45;;;19.00;99.90;;;;;;10150715;29;20228;-85
2022/08/24 06:29:11;;;;;;;25.98;17.40;;;19.60;99.90;;;;;;10179845;29;20238;-85
2022/08/24 06:34:19;;;;;;;16.30;11.40;;;20.00;99.90;;;;;;10190572;29;20238;-85
2022/08/24 06:39:22;;;;;;;28.58;18.05;;;20.20;99.90;;;;;;10189774;29;20266;-85
2022/08/24 06:44:29;;;;;;;27.83;18.48;;;20.30;99.90;;;;;;10176964;29;20243;-85
2022/08/24 06:49:43;;;;;;;29.55;18.92;;;20.40;99.90;;;;;;10151293;29;20693;-85
2022/08/24 06:54:46;;;;;;;24.60;15.35;;;20.20;99.90;;;;;;10150806;29;20764;-85
2022/08/24 06:59:48;;;;;;;22.67;16.25;;;20.60;99.90;;;;;;10166851;29;20692;-85
2022/08/24 07:04:53;;;;;;;21.08;14.57;;;20.80;99.90;;;;;;10187890;29;20668;-85
2022/08/24 07:10:14;;;;;;;19.27;13.80;;;20.80;99.90;;;;;;10218618;29;20238;-85
2022/08/24 07:15:18;;;;;;;14.60;11.50;;;21.20;99.90;;;;;;10195066;29;20290;-85
2022/08/24 07:20:31;;;;;;;17.52;13.45;;;22.20;99.90;;;;;;10168679;29;20295;-85
2022/08/24 07:25:50;;;;;;;12.75;10.07;;;22.80;99.90;;;;;;10153991;29;20243;-85
2022/08/24 07:30:57;;;;;;;12.85;10.52;;;22.70;99.90;;;;;;10172264;29;20294;-84
2022/08/24 07:36:02;;;;;;;19.17;12.30;;;22.50;99.90;;;;;;10178116;29;20739;-84
2022/08/24 07:41:04;;;;;;;22.30;11.65;;;21.60;99.90;;;;;;10204330;28;20285;-88
2022/08/24 07:46:27;;;;;;;16.30;12.45;;;22.60;99.90;;;;;;10157422;29;20236;-86
2022/08/24 07:51:32;;;;;;;21.65;10.57;;;22.60;99.90;;;;;;10208727;29;20304;-85
2022/08/24 07:56:41;;;;;;;13.70;10.40;;;22.10;99.90;;;;;;10170604;29;20322;-84
2022/08/24 08:01:44;;;;;;;18.48;11.75;;;22.20;99.90;;;;;;10154945;29;20338;-84
2022/08/24 08:06:46;;;;;;;18.85;9.77;;;22.70;99.90;;;;;;10182153;29;20684;-85
2022/08/24 08:11:49;;;;;;;13.02;9.15;;;22.80;99.90;;;;;;10188011;29;20313;-84
2022/08/24 08:16:52;;;;;;;11.98;9.75;;;23.10;99.90;;;;;;10180218;29;20239;-84
2022/08/24 08:27:36;;;;;;;15.70;10.57;;;23.80;99.90;;;;;;10198388;29;20281;-83
2022/08/24 08:32:39;;;;;;;15.70;8.43;;;23.90;99.90;;;;;;10177823;29;20250;-85
2022/08/24 08:37:42;;;;;;;12.82;9.93;;;23.90;99.90;;;;;;10155497;29;20357;-85
2022/08/24 08:43:09;;;;;;;11.80;8.02;;;23.60;99.90;;;;;;10190889;29;20625;-86
2022/08/24 08:48:38;;;;;;;14.85;12.40;;;23.60;99.90;;;;;;10164427;29;20239;-85
2022/08/24 08:53:59;;;;;;;10.32;7.25;;;23.80;99.90;;;;;;10171532;29;20294;-85
2022/08/24 08:59:29;;;;;;;11.98;10.60;;;23.80;99.90;;;;;;10177288;29;20375;-85
2022/08/24 09:05:06;;;;;;;12.45;9.05;;;24.20;99.90;;;;;;10169109;29;20803;-82
2022/08/24 09:10:09;;;;;;;7.32;6.57;;;24.30;99.90;;;;;;10164137;29;20232;-84
2022/08/24 09:15:31;;;;;;;9.68;7.43;;;24.40;99.90;;;;;;10156886;29;20681;-83
2022/08/24 09:20:52;;;;;;;13.15;8.63;;;24.50;99.90;;;;;;10169940;29;20251;-83
2022/08/24 09:26:01;;;;;;;10.82;6.75;;;24.30;99.90;;;;;;10196901;29;20227;-83
2022/08/24 09:31:16;;;;;;;13.55;11.50;;;24.40;99.90;;;;;;10155483;29;20301;-84
2022/08/24 09:36:37;;;;;;;12.15;6.97;;;24.70;99.90;;;;;;10211390;29;20258;-83
2022/08/24 09:41:58;;;;;;;15.05;6.93;;;25.00;99.90;;;;;;10176357;29;20731;-83
2022/08/24 09:47:27;;;;;;;10.07;8.15;;;25.10;99.90;;;;;;10189731;29;20243;-83
2022/08/24 09:52:49;;;;;;;13.35;6.05;;;25.10;99.90;;;;;;10186236;29;20226;-85
2022/08/24 09:58:03;;;;;;;13.63;11.52;;;25.10;99.90;;;;;;10172972;29;20274;-84
2022/08/24 10:03:26;;;;;;;10.80;8.20;;;25.30;99.90;;;;;;10168047;29;20254;-83
2022/08/24 10:09:05;;;;;;;13.00;10.65;;;25.40;99.90;;;;;;10172504;29;20267;-83
2022/08/24 10:14:08;;;;;;;14.40;12.90;;;25.50;99.90;;;;;;10134392;29;20692;-84
2022/08/24 10:19:10;;;;;;;11.77;9.95;;;25.80;99.90;;;;;;10182549;29;20238;-84
2022/08/24 10:24:34;;;;;;;16.05;12.15;;;26.10;99.90;;;;;;10172622;29;20655;-86
2022/08/24 10:29:52;;;;;;;15.50;9.35;;;26.00;99.90;;;;;;10190408;29;20239;-86
2022/08/24 10:35:03;;;;;;;14.02;8.95;;;25.60;99.90;;;;;;10206995;29;20279;-85
2022/08/24 10:40:32;;;;;;;9.27;7.80;;;25.40;99.90;;;;;;10205708;29;20298;-85
2022/08/24 10:45:56;;;;;;;13.90;8.48;;;25.30;99.90;;;;;;10188314;29;20281;-86
2022/08/24 10:51:17;;;;;;;13.43;7.38;;;25.30;99.90;;;;;;10197447;29;20230;-86
2022/08/24 10:56:39;;;;;;;15.40;13.77;;;25.40;99.90;;;;;;10196315;29;20226;-85
2022/08/24 11:02:06;;;;;;;16.63;11.82;;;25.50;99.90;;;;;;10211844;28;20298;-85
2022/08/24 11:07:16;;;;;;;9.52;6.35;;;25.60;99.90;;;;;;10214074;29;20683;-85
2022/08/24 11:12:37;;;;;;;9.63;6.35;;;25.90;99.90;;;;;;10210244;29;20720;-85
2022/08/24 11:17:59;;;;;;;13.27;8.10;;;26.00;99.90;;;;;;10189094;29;20262;-85
2022/08/24 11:23:06;;;;;;;18.80;15.32;;;26.20;99.90;;;;;;10197527;29;20779;-83
2022/08/24 11:28:19;;;;;;;18.02;14.45;;;26.20;99.90;;;;;;10206104;29;20644;-84
2022/08/24 11:33:45;;;;;;;14.18;6.20;;;26.10;99.90;;;;;;10193428;29;20691;-83
2022/08/24 11:39:09;;;;;;;20.60;13.63;;;26.40;99.90;;;;;;10162432;29;20334;-83
2022/08/24 11:44:30;;;;;;;14.35;11.05;;;26.60;99.90;;;;;;10177116;29;20258;-82
2022/08/24 11:49:48;;;;;;;16.30;11.30;;;26.60;99.90;;;;;;10212856;29;20230;-83
2022/08/24 11:55:13;;;;;;;14.02;12.45;;;26.20;99.90;;;;;;10212763;29;20259;-83
2022/08/24 12:00:22;;;;;;;16.23;13.82;;;26.20;99.90;;;;;;10173074;29;20247;-85
2022/08/24 12:05:24;;;;;;;11.98;8.70;;;26.00;99.90;;;;;;10210184;29;20227;-84
2022/08/24 12:11:00;;;;;;;20.60;14.30;;;26.10;99.90;;;;;;10195056;29;20239;-84
2022/08/24 12:16:30;;;;;;;11.38;5.95;;;26.00;99.90;;;;;;10201871;29;20238;-85
2022/08/24 12:21:37;;;;;;;20.75;9.95;;;26.00;99.90;;;;;;10180162;29;20247;-88
2022/08/24 12:26:45;;;;;;;14.07;10.70;;;25.80;99.90;;;;;;10187094;29;20283;-84
2022/08/24 12:31:58;;;;;;;18.13;15.02;;;25.90;99.90;;;;;;10174984;29;20239;-84
2022/08/24 12:37:25;;;;;;;16.23;12.23;;;25.90;99.90;;;;;;10154832;29;20740;-85
2022/08/24 12:42:38;;;;;;;18.63;15.10;;;26.00;99.90;;;;;;10172004;29;20251;-84
2022/08/24 12:47:48;;;;;;;16.45;8.52;;;26.00;99.90;;;;;;10198788;29;20296;-84
2022/08/24 12:53:27;;;;;;;21.80;14.95;;;26.00;99.90;;;;;;10210504;29;20615;-84
2022/08/24 12:58:53;;;;;;;16.67;9.90;;;26.10;99.90;;;;;;10193592;29;20262;-84
2022/08/24 13:04:30;;;;;;;17.00;15.32;;;26.30;99.90;;;;;;10193255;29;20667;-85
2022/08/24 13:09:34;;;;;;;16.45;14.13;;;26.40;99.90;;;;;;10203091;29;20222;-85
2022/08/24 13:14:37;;;;;;;12.85;10.07;;;26.50;99.90;;;;;;10211075;29;20235;-85
2022/08/24 13:19:44;;;;;;;20.13;17.63;;;26.60;99.90;;;;;;10219138;29;20222;-85
2022/08/24 13:24:56;;;;;;;19.63;17.52;;;26.30;99.90;;;;;;10201342;29;20247;-83
2022/08/24 13:30:16;;;;;;;16.20;13.98;;;26.20;99.90;;;;;;10206213;29;20262;-84
2022/08/24 13:35:57;;;;;;;17.67;10.25;;;26.30;99.90;;;;;;10208611;29;20293;-84
2022/08/24 13:41:21;;;;;;;14.07;8.73;;;26.20;99.90;;;;;;10049361;29;20365;-84
2022/08/24 13:46:49;;;;;;;16.20;14.50;;;26.10;99.90;;;;;;10051611;29;20247;-84
2022/08/24 13:52:14;;;;;;;15.30;9.38;;;25.90;99.90;;;;;;10050602;29;20233;-84
2022/08/24 13:57:34;;;;;;;20.50;8.93;;;25.90;99.90;;;;;;10042124;29;20297;-84
2022/08/24 14:03:00;;;;;;;12.60;7.93;;;26.00;99.90;;;;;;10047031;29;20268;-85
2022/08/24 14:08:09;;;;;;;17.23;11.98;;;26.00;99.90;;;;;;10044655;29;20293;-84
2022/08/24 14:13:46;;;;;;;13.60;7.88;;;26.10;99.90;;;;;;10106763;29;20277;-88
2022/08/24 14:18:55;;;;;;;14.77;10.70;;;26.30;99.90;;;;;;10200690;29;20297;-86
2022/08/24 14:24:09;;;;;;;15.48;10.80;;;26.50;99.90;;;;;;10179993;29;20250;-83
2022/08/24 14:29:18;;;;;;;13.63;7.50;;;26.30;99.90;;;;;;10188339;29;20239;-85
2022/08/24 14:34:27;;;;;;;12.40;9.52;;;26.10;99.90;;;;;;10183526;29;20238;-84
2022/08/24 14:39:57;;;;;;;19.25;10.48;;;26.10;99.90;;;;;;10182894;29;20322;-84
2022/08/24 14:45:09;;;;;;;11.90;6.95;;;26.00;99.90;;;;;;10199189;29;20258;-84
2022/08/24 14:50:21;;;;;;;16.02;8.13;;;26.00;99.90;;;;;;10178642;29;20239;-84
2022/08/24 14:55:54;;;;;;;20.17;14.25;;;26.10;99.90;;;;;;10176498;29;20271;-83
2022/08/24 15:01:41;;;;;;;16.90;11.48;;;26.10;99.90;;;;;;10215221;29;20250;-83
2022/08/24 15:06:53;;;;;;;22.58;7.95;;;26.10;99.90;;;;;;10196821;29;20231;-84
2022/08/24 15:12:09;;;;;;;16.63;14.10;;;26.00;99.90;;;;;;10191720;29;20239;-83
2022/08/24 15:17:20;;;;;;;19.48;16.98;;;25.80;99.90;;;;;;10158798;29;20271;-84
2022/08/24 15:22:35;;;;;;;21.33;15.15;;;25.60;99.90;;;;;;10174622;29;20807;-83
2022/08/24 15:27:41;;;;;;;26.40;19.48;;;25.50;99.90;;;;;;10157955;29;20208;-83
2022/08/24 15:32:51;;;;;;;21.95;18.38;;;25.50;99.90;;;;;;10173568;29;20259;-84
2022/08/24 15:37:55;;;;;;;17.65;11.30;;;25.40;99.90;;;;;;10174177;29;20279;-83
2022/08/24 15:43:02;;;;;;;14.77;8.77;;;25.30;99.90;;;;;;10174075;29;20252;-83
2022/08/24 15:48:05;;;;;;;18.45;15.88;;;25.20;99.90;;;;;;10174045;29;20635;-83
2022/08/24 15:53:35;;;;;;;16.92;9.02;;;25.10;99.90;;;;;;10157718;29;20208;-84
2022/08/24 15:58:38;;;;;;;21.98;16.38;;;25.20;99.90;;;;;;10156171;29;20243;-83
2022/08/24 16:03:41;;;;;;;16.50;11.63;;;25.20;99.90;;;;;;10183119;29;20647;-84
2022/08/24 16:08:59;;;;;;;21.50;18.42;;;25.20;99.90;;;;;;10171537;29;20243;-84
2022/08/24 16:14:02;;;;;;;18.13;11.70;;;25.10;99.90;;;;;;10210478;29;20246;-84
2022/08/24 16:19:16;;;;;;;26.60;15.73;;;25.10;99.90;;;;;;10212566;29;20234;-84
2022/08/24 16:24:19;;;;;;;20.73;15.30;;;25.00;99.90;;;;;;10191272;29;20243;-84
2022/08/24 16:29:33;;;;;;;13.32;9.32;;;25.00;99.90;;;;;;10186827;29;20775;-83
2022/08/24 16:34:39;;;;;;;21.95;10.25;;;25.00;99.90;;;;;;10211190;29;20238;-84
2022/08/24 16:39:42;;;;;;;18.15;15.48;;;24.90;99.90;;;;;;10176271;29;20276;-84
2022/08/24 16:44:44;;;;;;;20.58;11.15;;;24.90;99.90;;;;;;10154684;29;20330;-84
2022/08/24 16:49:48;;;;;;;19.13;13.10;;;24.90;99.90;;;;;;10172018;29;20693;-84
2022/08/24 16:54:51;;;;;;;13.82;10.82;;;24.90;99.90;;;;;;10186523;29;20287;-84
2022/08/24 16:59:53;;;;;;;22.30;18.45;;;24.90;99.90;;;;;;10194112;29;20267;-84
2022/08/24 17:04:56;;;;;;;20.40;9.68;;;24.80;99.90;;;;;;10210498;29;20310;-84
2022/08/24 17:10:01;;;;;;;19.15;10.73;;;24.80;99.90;;;;;;10186165;29;20266;-84
2022/08/24 17:15:05;;;;;;;21.20;18.10;;;24.70;99.90;;;;;;10191669;29;20301;-84
2022/08/24 17:20:09;;;;;;;21.08;18.77;;;24.60;99.90;;;;;;10193336;29;20239;-84
2022/08/24 17:25:12;;;;;;;17.63;15.73;;;24.50;99.90;;;;;;10180475;29;20259;-84
2022/08/24 17:30:19;;;;;;;16.63;10.15;;;24.40;99.90;;;;;;10170340;29;20369;-84
2022/08/24 17:35:22;;;;;;;16.67;9.68;;;24.20;99.90;;;;;;10184187;29;20234;-83
2022/08/24 17:40:26;;;;;;;17.88;8.65;;;23.80;99.90;;;;;;10197135;29;20287;-85
2022/08/24 17:45:29;;;;;;;18.77;8.77;;;23.30;99.90;;;;;;10182005;29;20255;-87
2022/08/24 17:50:31;;;;;;;14.63;9.30;;;23.10;99.90;;;;;;10206504;29;20228;-85
2022/08/24 17:55:34;;;;;;;23.23;9.48;;;22.90;99.90;;;;;;10157694;29;20685;-85
2022/08/24 18:00:36;;;;;;;22.63;10.05;;;22.50;99.90;;;;;;10153107;29;20604;-85
2022/08/24 18:05:39;;;;;;;16.40;9.90;;;22.20;99.90;;;;;;10152757;29;20688;-84
2022/08/24 18:10:42;;;;;;;22.25;13.25;;;22.00;99.90;;;;;;10153169;29;20275;-86
2022/08/24 18:15:45;;;;;;;18.35;8.38;;;22.00;99.90;;;;;;10208755;29;20242;-86
2022/08/24 18:20:47;;;;;;;23.70;9.65;;;22.80;99.90;;;;;;10198529;29;20244;-85
2022/08/24 18:25:50;;;;;;;29.55;12.05;;;22.40;99.90;;;;;;10190746;29;20262;-88
2022/08/24 18:30:54;;;;;;;29.70;11.60;;;21.60;99.90;;;;;;10186397;29;20235;-88
2022/08/24 18:41:38;;;;;;;23.27;11.98;;;21.40;99.90;;;;;;9311497;29;10000534;-92
2022/08/24 18:46:40;;;;;;;29.88;13.05;;;21.20;99.90;;;;;;10122808;29;20665;-91
2022/08/24 18:51:44;;;;;;;27.77;14.02;;;21.10;99.90;;;;;;10145390;29;20271;-91
2022/08/24 18:56:49;;;;;;;23.30;12.60;;;20.90;99.90;;;;;;10166130;29;20684;-92
2022/08/24 19:07:17;;;;;;;28.30;14.60;;;20.60;99.90;;;;;;10126717;29;20223;-92
2022/08/24 19:12:20;;;;;;;17.70;12.60;;;20.60;99.90;;;;;;10110987;29;21023;-92
2022/08/24 19:17:23;;;;;;;22.40;14.50;;;20.50;99.90;;;;;;10139559;29;20307;-92
2022/08/24 19:22:26;;;;;;;22.48;13.98;;;20.30;99.90;;;;;;10130765;29;20267;-92
2022/08/24 19:27:30;;;;;;;26.98;15.93;;;20.30;99.90;;;;;;10120215;29;20665;-92
2022/08/24 19:32:38;;;;;;;24.73;14.75;;;20.20;99.90;;;;;;10114399;29;20240;-92
2022/08/24 19:37:42;;;;;;;30.92;15.30;;;20.20;99.90;;;;;;10137141;29;20330;-92
2022/08/24 19:42:48;;;;;;;29.15;16.25;;;20.20;99.90;;;;;;10134303;29;20299;-92
2022/08/24 19:47:51;;;;;;;27.55;16.20;;;20.30;99.90;;;;;;10152037;29;20518;-94
2022/08/24 19:53:00;;;;;;;21.73;15.88;;;20.10;99.90;;;;;;10139563;29;20926;-93
2022/08/24 19:58:08;;;;;;;25.60;15.77;;;20.10;99.90;;;;;;10136836;29;20971;-91
2022/08/24 20:03:10;;;;;;;19.63;13.55;;;20.20;99.90;;;;;;10130147;29;20236;-91
2022/08/24 20:08:14;;;;;;;21.17;13.57;;;20.10;99.90;;;;;;10155797;29;20235;-91
2022/08/24 20:13:17;;;;;;;20.48;14.15;;;20.00;99.90;;;;;;10137945;29;20268;-91
2022/08/24 20:18:24;;;;;;;23.13;14.57;;;19.90;99.90;;;;;;10136254;29;20243;-93
2022/08/24 20:23:28;;;;;;;35.15;16.20;;;19.80;99.90;;;;;;10154163;29;20275;-92
2022/08/24 20:28:57;;;;;;;27.80;15.00;;;19.80;99.90;;;;;;10152834;29;20231;-91
2022/08/24 20:34:00;;;;;;;29.58;15.25;;;19.70;99.90;;;;;;10127101;29;20818;-90
2022/08/24 20:39:10;;;;;;;20.77;13.38;;;19.70;99.90;;;;;;10179053;29;20270;-90
2022/08/24 20:44:12;;;;;;;27.13;15.07;;;19.60;99.90;;;;;;10168596;29;20819;-90
2022/08/24 20:49:17;;;;;;;24.02;15.27;;;19.40;99.90;;;;;;10131261;29;20227;-91
2022/08/24 20:54:20;;;;;;;28.02;16.65;;;19.40;99.90;;;;;;10151781;29;20235;-91
2022/08/24 20:59:23;;;;;;;31.25;17.55;;;19.30;99.90;;;;;;10145834;29;20341;-91
2022/08/24 21:04:26;;;;;;;24.98;15.20;;;19.20;99.90;;;;;;10151549;29;20314;-91
2022/08/24 21:09:30;;;;;;;23.83;14.77;;;19.20;99.90;;;;;;10144561;29;20292;-92
2022/08/24 21:14:32;;;;;;;28.77;16.95;;;19.10;99.90;;;;;;10142336;29;20208;-92
2022/08/24 21:19:35;;;;;;;27.92;16.55;;;19.10;99.90;;;;;;10168446;29;20291;-91
2022/08/24 21:24:37;;;;;;;25.98;15.93;;;19.00;99.90;;;;;;10135590;29;20330;-91
2022/08/24 21:29:40;;;;;;;23.77;15.25;;;19.00;99.90;;;;;;10138923;29;20235;-91
2022/08/24 21:34:44;;;;;;;20.38;14.98;;;18.90;99.90;;;;;;10153596;29;20199;-90
2022/08/24 21:39:47;;;;;;;19.00;14.05;;;18.80;99.90;;;;;;10165347;29;20263;-90
2022/08/24 21:44:50;;;;;;;21.50;15.27;;;18.80;99.90;;;;;;10151707;29;20247;-91
2022/08/24 21:49:53;;;;;;;21.92;16.55;;;18.80;99.90;;;;;;10134701;29;20279;-91
2022/08/24 21:54:56;;;;;;;28.50;15.75;;;18.70;99.90;;;;;;10162186;29;20279;-91
2022/08/24 21:59:59;;;;;;;22.20;15.05;;;18.90;99.90;;;;;;10148519;29;20693;-91
2022/08/24 22:05:01;;;;;;;20.50;13.40;;;19.30;99.90;;;;;;10150999;29;20255;-91
2022/08/24 22:10:06;;;;;;;23.65;15.02;;;19.40;99.90;;;;;;10150157;29;20697;-91
2022/08/24 22:15:11;;;;;;;27.88;14.23;;;19.40;99.90;;;;;;10133452;29;20232;-91
2022/08/24 22:20:14;;;;;;;23.77;14.07;;;19.40;99.90;;;;;;10122989;29;20831;-90
2022/08/24 22:25:24;;;;;;;24.35;14.93;;;19.50;99.90;;;;;;10152181;29;20311;-90
2022/08/24 22:30:27;;;;;;;29.58;15.57;;;19.50;99.90;;;;;;10145349;29;20266;-90
2022/08/24 22:35:30;;;;;;;28.48;17.10;;;19.60;99.90;;;;;;10147628;29;20694;-91
2022/08/24 22:40:39;;;;;;;24.02;16.30;;;19.60;99.90;;;;;;10151972;29;20275;-92
2022/08/24 22:45:42;;;;;;;26.08;16.77;;;19.70;99.90;;;;;;10156880;29;20263;-90
2022/08/24 22:50:45;;;;;;;22.08;14.40;;;19.70;99.90;;;;;;10146582;29;20271;-91
2022/08/24 22:55:47;;;;;;;23.52;13.77;;;19.90;99.90;;;;;;10152558;29;20283;-90
2022/08/24 23:00:50;;;;;;;20.33;14.10;;;20.10;99.90;;;;;;10137844;29;20235;-90
2022/08/24 23:05:53;;;;;;;22.33;13.15;;;20.10;99.90;;;;;;10158590;29;20314;-91
2022/08/24 23:10:55;;;;;;;25.05;15.77;;;20.20;99.90;;;;;;10150198;29;20697;-90
2022/08/24 23:16:00;;;;;;;21.92;14.18;;;20.10;99.90;;;;;;10155558;29;20223;-90
2022/08/24 23:21:03;;;;;;;23.73;13.50;;;19.90;99.90;;;;;;10156523;29;20275;-91
2022/08/24 23:26:05;;;;;;;21.77;13.68;;;19.90;99.90;;;;;;10152285;29;20259;-90
2022/08/24 23:31:17;;;;;;;22.10;13.40;;;19.80;99.90;;;;;;10153320;29;20228;-90
2022/08/24 23:36:23;;;;;;;19.45;11.98;;;19.60;99.90;;;;;;10142302;29;20231;-88
2022/08/24 23:41:29;;;;;;;20.58;11.95;;;19.60;99.90;;;;;;10139677;29;20287;-91
2022/08/24 23:46:32;;;;;;;19.75;11.30;;;19.60;99.90;;;;;;10149677;29;20314;-90
2022/08/24 23:51:36;;;;;;;20.52;10.48;;;19.70;99.90;;;;;;10157022;29;20275;-89
2022/08/24 23:56:41;;;;;;;15.23;10.25;;;19.80;99.90;;;;;;10173056;29;20682;-89
